sensor_id;sensor_type;location;lat;lon;timestamp;pressure;altitude;pressure_sealevel;temperature;humidity
61357;BME280;47227;46.752;23.576;2024-02-23T00:01:51;95566.94;;;8.13;48.53
61357;BME280;47227;46.752;23.576;2024-02-23T00:04:19;95565.89;;;8.12;48.86
61357;BME280;47227;46.752;23.576;2024-02-23T00:06:48;95562.22;;;8.11;48.93
61357;BME280;47227;46.752;23.576;2024-02-23T00:09:16;95565.84;;;8.07;49.03
61357;BME280;47227;46.752;23.576;2024-02-23T00:11:45;95561.14;;;8.05;48.44
61357;BME280;47227;46.752;23.576;2024-02-23T00:14:15;95561.36;;;8.01;49.88
61357;BME280;47227;46.752;23.576;2024-02-23T00:16:44;95559.96;;;7.97;49.97
61357;BME280;47227;46.752;23.576;2024-02-23T00:19:13;95562.38;;;7.94;50.22
61357;BME280;47227;46.752;23.576;2024-02-23T00:21:42;95563.83;;;7.92;50.39
61357;BME280;47227;46.752;23.576;2024-02-23T00:24:10;95562.54;;;7.88;50.51
61357;BME280;47227;46.752;23.576;2024-02-23T00:26:39;95561.63;;;7.85;49.46
61357;BME280;47227;46.752;23.576;2024-02-23T00:29:07;95562.30;;;7.86;50.25
61357;BME280;47227;46.752;23.576;2024-02-23T00:31:39;95558.71;;;7.81;50.83
61357;BME280;47227;46.752;23.576;2024-02-23T00:34:13;95564.58;;;7.71;51.89
61357;BME280;47227;46.752;23.576;2024-02-23T00:36:42;95561.59;;;7.66;51.91
61357;BME280;47227;46.752;23.576;2024-02-23T00:39:13;95556.72;;;7.53;52.27
61357;BME280;47227;46.752;23.576;2024-02-23T00:41:41;95553.02;;;7.55;51.56
61357;BME280;47227;46.752;23.576;2024-02-23T00:44:09;95551.31;;;7.60;50.65
61357;BME280;47227;46.752;23.576;2024-02-23T00:46:38;95551.72;;;7.63;50.92
61357;BME280;47227;46.752;23.576;2024-02-23T00:49:06;95549.83;;;7.63;51.07
61357;BME280;47227;46.752;23.576;2024-02-23T00:51:35;95553.90;;;7.64;50.92
61357;BME280;47227;46.752;23.576;2024-02-23T00:54:03;95552.65;;;7.64;50.66
61357;BME280;47227;46.752;23.576;2024-02-23T00:56:32;95552.20;;;7.66;50.59
61357;BME280;47227;46.752;23.576;2024-02-23T00:59:17;95547.56;;;7.66;50.87
61357;BME280;47227;46.752;23.576;2024-02-23T01:01:45;95545.53;;;7.67;50.53
61357;BME280;47227;46.752;23.576;2024-02-23T01:04:14;95543.86;;;7.67;50.76
61357;BME280;47227;46.752;23.576;2024-02-23T01:06:42;95544.82;;;7.69;50.75
61357;BME280;47227;46.752;23.576;2024-02-23T01:09:10;95544.09;;;7.69;50.72
61357;BME280;47227;46.752;23.576;2024-02-23T01:11:39;95542.59;;;7.70;50.81
61357;BME280;47227;46.752;23.576;2024-02-23T01:14:07;95538.55;;;7.69;50.65
61357;BME280;47227;46.752;23.576;2024-02-23T01:16:36;95539.23;;;7.69;50.77
61357;BME280;47227;46.752;23.576;2024-02-23T01:19:04;95535.95;;;7.68;50.79
61357;BME280;47227;46.752;23.576;2024-02-23T01:21:33;95535.67;;;7.67;50.72
61357;BME280;47227;46.752;23.576;2024-02-23T01:24:02;95531.53;;;7.66;50.75
61357;BME280;47227;46.752;23.576;2024-02-23T01:26:30;95531.33;;;7.66;50.91
61357;BME280;47227;46.752;23.576;2024-02-23T01:28:59;95530.28;;;7.66;50.86
61357;BME280;47227;46.752;23.576;2024-02-23T01:31:27;95528.82;;;7.67;50.61
61357;BME280;47227;46.752;23.576;2024-02-23T01:33:55;95530.30;;;7.67;50.47
61357;BME280;47227;46.752;23.576;2024-02-23T01:36:24;95531.84;;;7.67;50.47
61357;BME280;47227;46.752;23.576;2024-02-23T01:38:53;95529.20;;;7.67;50.69
61357;BME280;47227;46.752;23.576;2024-02-23T01:41:21;95529.76;;;7.65;50.86
61357;BME280;47227;46.752;23.576;2024-02-23T01:43:50;95527.91;;;7.64;51.02
61357;BME280;47227;46.752;23.576;2024-02-23T01:46:19;95527.17;;;7.62;51.06
61357;BME280;47227;46.752;23.576;2024-02-23T01:48:48;95523.08;;;7.62;51.06
61357;BME280;47227;46.752;23.576;2024-02-23T01:51:17;95518.67;;;7.63;50.97
61357;BME280;47227;46.752;23.576;2024-02-23T01:53:45;95509.16;;;7.64;50.39
61357;BME280;47227;46.752;23.576;2024-02-23T01:56:15;95505.08;;;7.66;50.03
61357;BME280;47227;46.752;23.576;2024-02-23T01:58:48;95507.36;;;7.71;50.23
61357;BME280;47227;46.752;23.576;2024-02-23T02:01:16;95509.01;;;7.74;50.11
61357;BME280;47227;46.752;23.576;2024-02-23T02:03:45;95507.94;;;7.76;49.85
61357;BME280;47227;46.752;23.576;2024-02-23T02:06:14;95509.16;;;7.81;49.89
61357;BME280;47227;46.752;23.576;2024-02-23T02:08:43;95510.34;;;7.84;49.80
61357;BME280;47227;46.752;23.576;2024-02-23T02:11:11;95509.94;;;7.86;49.80
61357;BME280;47227;46.752;23.576;2024-02-23T02:13:40;95514.45;;;7.88;49.95
61357;BME280;47227;46.752;23.576;2024-02-23T02:16:09;95508.45;;;7.90;49.73
61357;BME280;47227;46.752;23.576;2024-02-23T02:18:39;95508.58;;;7.91;49.74
61357;BME280;47227;46.752;23.576;2024-02-23T02:21:07;95505.73;;;7.93;49.73
61357;BME280;47227;46.752;23.576;2024-02-23T02:23:36;95500.14;;;7.95;49.52
61357;BME280;47227;46.752;23.576;2024-02-23T02:26:05;95502.04;;;7.96;49.66
61357;BME280;47227;46.752;23.576;2024-02-23T02:28:34;95502.88;;;7.97;49.72
61357;BME280;47227;46.752;23.576;2024-02-23T02:31:03;95503.45;;;7.98;49.81
61357;BME280;47227;46.752;23.576;2024-02-23T02:33:31;95504.09;;;7.99;49.90
61357;BME280;47227;46.752;23.576;2024-02-23T02:36:00;95503.28;;;8.01;49.49
61357;BME280;47227;46.752;23.576;2024-02-23T02:38:28;95504.39;;;8.03;49.84
61357;BME280;47227;46.752;23.576;2024-02-23T02:40:57;95507.53;;;8.03;49.85
61357;BME280;47227;46.752;23.576;2024-02-23T02:43:27;95502.30;;;8.03;49.70
61357;BME280;47227;46.752;23.576;2024-02-23T02:45:56;95501.26;;;8.04;49.96
61357;BME280;47227;46.752;23.576;2024-02-23T02:48:25;95500.29;;;8.06;49.84
61357;BME280;47227;46.752;23.576;2024-02-23T02:50:53;95500.73;;;8.09;49.62
61357;BME280;47227;46.752;23.576;2024-02-23T02:53:22;95509.20;;;8.11;49.81
61357;BME280;47227;46.752;23.576;2024-02-23T02:55:51;95509.93;;;8.12;49.67
61357;BME280;47227;46.752;23.576;2024-02-23T02:58:20;95509.95;;;8.13;49.65
61357;BME280;47227;46.752;23.576;2024-02-23T03:00:48;95507.56;;;8.15;49.51
61357;BME280;47227;46.752;23.576;2024-02-23T03:03:16;95505.29;;;8.18;49.46
61357;BME280;47227;46.752;23.576;2024-02-23T03:05:45;95510.77;;;8.20;49.54
61357;BME280;47227;46.752;23.576;2024-02-23T03:08:13;95503.73;;;8.22;49.69
61357;BME280;47227;46.752;23.576;2024-02-23T03:10:42;95509.85;;;8.22;49.76
61357;BME280;47227;46.752;23.576;2024-02-23T03:13:10;95506.14;;;8.21;49.63
61357;BME280;47227;46.752;23.576;2024-02-23T03:15:39;95506.45;;;8.19;49.89
61357;BME280;47227;46.752;23.576;2024-02-23T03:18:07;95507.99;;;8.17;50.21
61357;BME280;47227;46.752;23.576;2024-02-23T03:20:38;95510.48;;;8.17;50.17
61357;BME280;47227;46.752;23.576;2024-02-23T03:23:06;95508.34;;;8.14;50.17
61357;BME280;47227;46.752;23.576;2024-02-23T03:25:34;95512.34;;;8.12;50.36
61357;BME280;47227;46.752;23.576;2024-02-23T03:28:03;95513.89;;;8.10;50.65
61357;BME280;47227;46.752;23.576;2024-02-23T03:30:31;95509.74;;;8.07;50.72
61357;BME280;47227;46.752;23.576;2024-02-23T03:33:04;95514.32;;;8.05;50.63
61357;BME280;47227;46.752;23.576;2024-02-23T03:35:33;95510.44;;;8.03;50.81
61357;BME280;47227;46.752;23.576;2024-02-23T03:38:01;95508.30;;;8.00;50.82
61357;BME280;47227;46.752;23.576;2024-02-23T03:40:30;95508.50;;;8.00;50.81
61357;BME280;47227;46.752;23.576;2024-02-23T03:42:58;95507.62;;;8.00;50.84
61357;BME280;47227;46.752;23.576;2024-02-23T03:45:28;95503.48;;;8.00;50.91
61357;BME280;47227;46.752;23.576;2024-02-23T03:47:56;95504.64;;;8.00;50.73
61357;BME280;47227;46.752;23.576;2024-02-23T03:50:25;95507.38;;;8.03;50.97
61357;BME280;47227;46.752;23.576;2024-02-23T03:52:53;95506.91;;;8.05;50.72
61357;BME280;47227;46.752;23.576;2024-02-23T03:55:22;95499.73;;;8.08;50.66
61357;BME280;47227;46.752;23.576;2024-02-23T03:57:50;95507.05;;;8.10;50.64
61357;BME280;47227;46.752;23.576;2024-02-23T04:00:19;95505.29;;;8.12;50.71
61357;BME280;47227;46.752;23.576;2024-02-23T04:02:49;95506.98;;;8.16;50.34
61357;BME280;47227;46.752;23.576;2024-02-23T04:05:17;95507.33;;;8.19;50.40
61357;BME280;47227;46.752;23.576;2024-02-23T04:07:47;95500.92;;;8.21;50.09
61357;BME280;47227;46.752;23.576;2024-02-23T04:10:15;95505.98;;;8.22;50.20
61357;BME280;47227;46.752;23.576;2024-02-23T04:12:46;95507.92;;;8.23;50.22
61357;BME280;47227;46.752;23.576;2024-02-23T04:15:15;95505.63;;;8.23;50.29
61357;BME280;47227;46.752;23.576;2024-02-23T04:17:43;95501.18;;;8.22;50.52
61357;BME280;47227;46.752;23.576;2024-02-23T04:20:12;95501.17;;;8.21;50.52
61357;BME280;47227;46.752;23.576;2024-02-23T04:22:41;95499.44;;;8.20;50.56
61357;BME280;47227;46.752;23.576;2024-02-23T04:25:10;95499.45;;;8.20;50.39
61357;BME280;47227;46.752;23.576;2024-02-23T04:27:38;95497.95;;;8.21;50.62
61357;BME280;47227;46.752;23.576;2024-02-23T04:30:07;95491.39;;;8.19;50.38
61357;BME280;47227;46.752;23.576;2024-02-23T04:32:36;95488.98;;;8.19;50.58
61357;BME280;47227;46.752;23.576;2024-02-23T04:35:05;95496.72;;;8.19;50.62
61357;BME280;47227;46.752;23.576;2024-02-23T04:37:34;95501.98;;;8.17;50.68
61357;BME280;47227;46.752;23.576;2024-02-23T04:40:04;95503.59;;;8.16;50.69
61357;BME280;47227;46.752;23.576;2024-02-23T04:42:34;95503.59;;;8.15;50.57
61357;BME280;47227;46.752;23.576;2024-02-23T04:45:02;95501.17;;;8.14;50.52
61357;BME280;47227;46.752;23.576;2024-02-23T04:47:31;95500.66;;;8.14;50.74
61357;BME280;47227;46.752;23.576;2024-02-23T04:50:01;95504.55;;;8.16;50.64
61357;BME280;47227;46.752;23.576;2024-02-23T04:52:31;95508.81;;;8.15;50.81
61357;BME280;47227;46.752;23.576;2024-02-23T04:55:00;95510.11;;;8.13;50.76
61357;BME280;47227;46.752;23.576;2024-02-23T04:57:28;95509.90;;;8.13;50.71
61357;BME280;47227;46.752;23.576;2024-02-23T04:59:56;95511.71;;;8.12;50.72
61357;BME280;47227;46.752;23.576;2024-02-23T05:02:25;95518.08;;;8.12;50.74
61357;BME280;47227;46.752;23.576;2024-02-23T05:04:57;95519.39;;;8.11;50.67
61357;BME280;47227;46.752;23.576;2024-02-23T05:07:26;95517.04;;;8.11;50.73
61357;BME280;47227;46.752;23.576;2024-02-23T05:09:54;95516.83;;;8.10;50.75
61357;BME280;47227;46.752;23.576;2024-02-23T05:12:22;95523.92;;;8.10;50.89
61357;BME280;47227;46.752;23.576;2024-02-23T05:14:51;95523.65;;;8.08;50.77
61357;BME280;47227;46.752;23.576;2024-02-23T05:17:19;95521.10;;;8.08;50.77
61357;BME280;47227;46.752;23.576;2024-02-23T05:19:48;95520.92;;;8.07;50.81
61357;BME280;47227;46.752;23.576;2024-02-23T05:22:16;95522.23;;;8.08;50.78
61357;BME280;47227;46.752;23.576;2024-02-23T05:24:45;95526.21;;;8.08;51.06
61357;BME280;47227;46.752;23.576;2024-02-23T05:27:13;95530.54;;;8.07;50.95
61357;BME280;47227;46.752;23.576;2024-02-23T05:29:42;95531.05;;;8.06;51.07
61357;BME280;47227;46.752;23.576;2024-02-23T05:32:10;95534.17;;;8.05;51.13
61357;BME280;47227;46.752;23.576;2024-02-23T05:34:39;95535.53;;;8.06;51.19
61357;BME280;47227;46.752;23.576;2024-02-23T05:37:08;95534.48;;;8.05;51.11
61357;BME280;47227;46.752;23.576;2024-02-23T05:39:36;95535.41;;;8.04;51.12
61357;BME280;47227;46.752;23.576;2024-02-23T05:42:06;95537.77;;;8.04;51.07
61357;BME280;47227;46.752;23.576;2024-02-23T05:44:34;95544.36;;;8.05;51.19
61357;BME280;47227;46.752;23.576;2024-02-23T05:47:03;95548.70;;;8.06;51.27
61357;BME280;47227;46.752;23.576;2024-02-23T05:49:32;95551.52;;;8.06;50.96
61357;BME280;47227;46.752;23.576;2024-02-23T05:52:01;95553.98;;;8.06;50.89
61357;BME280;47227;46.752;23.576;2024-02-23T05:54:30;95555.94;;;8.08;50.93
61357;BME280;47227;46.752;23.576;2024-02-23T05:56:58;95558.13;;;8.10;51.16
61357;BME280;47227;46.752;23.576;2024-02-23T05:59:27;95557.73;;;8.11;51.14
61357;BME280;47227;46.752;23.576;2024-02-23T06:01:56;95557.67;;;8.12;51.04
61357;BME280;47227;46.752;23.576;2024-02-23T06:04:27;95558.42;;;8.13;51.04
61357;BME280;47227;46.752;23.576;2024-02-23T06:06:56;95560.52;;;8.14;50.94
61357;BME280;47227;46.752;23.576;2024-02-23T06:09:25;95562.00;;;8.16;50.80
61357;BME280;47227;46.752;23.576;2024-02-23T06:11:53;95564.42;;;8.18;50.83
61357;BME280;47227;46.752;23.576;2024-02-23T06:14:22;95570.02;;;8.20;50.77
61357;BME280;47227;46.752;23.576;2024-02-23T06:16:51;95575.20;;;8.21;50.72
61357;BME280;47227;46.752;23.576;2024-02-23T06:19:20;95577.64;;;8.24;50.92
61357;BME280;47227;46.752;23.576;2024-02-23T06:21:48;95580.52;;;8.25;51.09
61357;BME280;47227;46.752;23.576;2024-02-23T06:24:17;95575.20;;;8.26;51.71
61357;BME280;47227;46.752;23.576;2024-02-23T06:26:46;95573.84;;;8.27;51.63
61357;BME280;47227;46.752;23.576;2024-02-23T06:29:17;95569.97;;;8.27;51.78
61357;BME280;47227;46.752;23.576;2024-02-23T06:31:45;95567.26;;;8.27;52.15
61357;BME280;47227;46.752;23.576;2024-02-23T06:34:17;95565.21;;;8.26;52.27
61357;BME280;47227;46.752;23.576;2024-02-23T06:36:46;95566.27;;;8.26;52.15
61357;BME280;47227;46.752;23.576;2024-02-23T06:39:15;95562.26;;;8.28;52.12
61357;BME280;47227;46.752;23.576;2024-02-23T06:41:46;95557.26;;;8.30;52.27
61357;BME280;47227;46.752;23.576;2024-02-23T06:44:14;95563.33;;;8.32;51.74
61357;BME280;47227;46.752;23.576;2024-02-23T06:46:43;95562.56;;;8.36;51.31
61357;BME280;47227;46.752;23.576;2024-02-23T06:49:12;95568.06;;;8.40;51.06
61357;BME280;47227;46.752;23.576;2024-02-23T06:51:41;95565.06;;;8.43;50.72
61357;BME280;47227;46.752;23.576;2024-02-23T06:54:10;95565.87;;;8.47;50.77
61357;BME280;47227;46.752;23.576;2024-02-23T06:56:38;95567.20;;;8.50;50.67
61357;BME280;47227;46.752;23.576;2024-02-23T06:59:07;95573.59;;;8.53;50.58
61357;BME280;47227;46.752;23.576;2024-02-23T07:01:35;95573.11;;;8.59;50.73
61357;BME280;47227;46.752;23.576;2024-02-23T07:04:08;95574.09;;;8.63;50.42
61357;BME280;47227;46.752;23.576;2024-02-23T07:06:36;95571.42;;;8.65;50.47
61357;BME280;47227;46.752;23.576;2024-02-23T07:09:05;95571.24;;;8.69;50.36
61357;BME280;47227;46.752;23.576;2024-02-23T07:11:33;95568.92;;;8.72;50.31
61357;BME280;47227;46.752;23.576;2024-02-23T07:14:02;95571.13;;;8.75;50.25
61357;BME280;47227;46.752;23.576;2024-02-23T07:16:30;95574.08;;;8.79;49.96
61357;BME280;47227;46.752;23.576;2024-02-23T07:19:00;95577.73;;;8.83;49.64
61357;BME280;47227;46.752;23.576;2024-02-23T07:21:28;95579.67;;;8.87;49.65
61357;BME280;47227;46.752;23.576;2024-02-23T07:23:57;95580.27;;;8.92;49.35
61357;BME280;47227;46.752;23.576;2024-02-23T07:26:26;95578.83;;;8.96;49.45
61357;BME280;47227;46.752;23.576;2024-02-23T07:28:57;95576.77;;;9.00;48.85
61357;BME280;47227;46.752;23.576;2024-02-23T07:31:26;95578.52;;;9.05;48.60
61357;BME280;47227;46.752;23.576;2024-02-23T07:33:54;95581.67;;;9.10;48.69
61357;BME280;47227;46.752;23.576;2024-02-23T07:36:23;95581.73;;;9.14;48.60
61357;BME280;47227;46.752;23.576;2024-02-23T07:38:52;95578.10;;;9.17;48.24
61357;BME280;47227;46.752;23.576;2024-02-23T07:41:20;95577.94;;;9.18;48.31
61357;BME280;47227;46.752;23.576;2024-02-23T07:43:49;95575.27;;;9.19;48.01
61357;BME280;47227;46.752;23.576;2024-02-23T07:46:17;95579.73;;;9.20;48.25
61357;BME280;47227;46.752;23.576;2024-02-23T07:48:46;95579.83;;;9.20;47.62
61357;BME280;47227;46.752;23.576;2024-02-23T07:51:16;95581.47;;;9.22;47.82
61357;BME280;47227;46.752;23.576;2024-02-23T07:53:45;95583.66;;;9.22;48.04
61357;BME280;47227;46.752;23.576;2024-02-23T07:56:13;95585.64;;;9.23;48.08
61357;BME280;47227;46.752;23.576;2024-02-23T07:58:42;95584.88;;;9.23;47.68
61357;BME280;47227;46.752;23.576;2024-02-23T08:01:10;95579.44;;;9.23;48.09
61357;BME280;47227;46.752;23.576;2024-02-23T08:03:39;95585.34;;;9.23;47.62
61357;BME280;47227;46.752;23.576;2024-02-23T08:06:10;95589.90;;;9.23;47.95
61357;BME280;47227;46.752;23.576;2024-02-23T08:08:41;95591.16;;;9.23;47.67
61357;BME280;47227;46.752;23.576;2024-02-23T08:11:09;95593.19;;;9.22;48.05
61357;BME280;47227;46.752;23.576;2024-02-23T08:13:38;95599.09;;;9.20;48.28
61357;BME280;47227;46.752;23.576;2024-02-23T08:16:06;95599.29;;;9.17;48.34
61357;BME280;47227;46.752;23.576;2024-02-23T08:18:35;95601.59;;;9.17;48.83
61357;BME280;47227;46.752;23.576;2024-02-23T08:21:04;95603.05;;;9.17;49.10
61357;BME280;47227;46.752;23.576;2024-02-23T08:23:34;95600.95;;;9.15;49.17
61357;BME280;47227;46.752;23.576;2024-02-23T08:26:03;95603.14;;;9.14;49.40
61357;BME280;47227;46.752;23.576;2024-02-23T08:28:31;95603.98;;;9.14;49.48
61357;BME280;47227;46.752;23.576;2024-02-23T08:31:00;95604.72;;;9.14;49.30
61357;BME280;47227;46.752;23.576;2024-02-23T08:33:28;95607.95;;;9.14;49.31
61357;BME280;47227;46.752;23.576;2024-02-23T08:35:57;95608.33;;;9.16;49.55
61357;BME280;47227;46.752;23.576;2024-02-23T08:38:25;95606.30;;;9.17;49.54
61357;BME280;47227;46.752;23.576;2024-02-23T08:40:54;95606.41;;;9.16;49.27
61357;BME280;47227;46.752;23.576;2024-02-23T08:43:22;95606.98;;;9.17;49.50
61357;BME280;47227;46.752;23.576;2024-02-23T08:45:51;95608.77;;;9.19;49.57
61357;BME280;47227;46.752;23.576;2024-02-23T08:48:19;95607.11;;;9.22;49.47
61357;BME280;47227;46.752;23.576;2024-02-23T08:50:48;95608.17;;;9.25;49.42
61357;BME280;47227;46.752;23.576;2024-02-23T08:53:16;95602.58;;;9.26;49.15
61357;BME280;47227;46.752;23.576;2024-02-23T08:55:45;95608.45;;;9.28;49.01
61357;BME280;47227;46.752;23.576;2024-02-23T08:58:13;95600.66;;;9.30;48.88
61357;BME280;47227;46.752;23.576;2024-02-23T09:00:42;95604.39;;;9.35;49.05
61357;BME280;47227;46.752;23.576;2024-02-23T09:03:10;95599.12;;;9.37;49.26
61357;BME280;47227;46.752;23.576;2024-02-23T09:05:39;95600.64;;;9.38;49.41
61357;BME280;47227;46.752;23.576;2024-02-23T09:08:09;95598.56;;;9.40;49.48
61357;BME280;47227;46.752;23.576;2024-02-23T09:10:38;95600.45;;;9.44;49.58
61357;BME280;47227;46.752;23.576;2024-02-23T09:13:06;95601.88;;;9.46;49.44
61357;BME280;47227;46.752;23.576;2024-02-23T09:15:35;95605.43;;;9.47;49.65
61357;BME280;47227;46.752;23.576;2024-02-23T09:18:04;95605.39;;;9.48;49.17
61357;BME280;47227;46.752;23.576;2024-02-23T09:20:33;95608.84;;;9.50;49.37
61357;BME280;47227;46.752;23.576;2024-02-23T09:23:01;95614.14;;;9.49;48.99
61357;BME280;47227;46.752;23.576;2024-02-23T09:25:31;95613.15;;;9.50;49.28
61357;BME280;47227;46.752;23.576;2024-02-23T09:27:59;95611.06;;;9.55;49.30
61357;BME280;47227;46.752;23.576;2024-02-23T09:30:28;95613.55;;;9.60;48.80
61357;BME280;47227;46.752;23.576;2024-02-23T09:32:56;95616.49;;;9.64;48.49
61357;BME280;47227;46.752;23.576;2024-02-23T09:35:25;95617.29;;;9.68;48.47
61357;BME280;47227;46.752;23.576;2024-02-23T09:37:53;95616.94;;;9.72;48.44
61357;BME280;47227;46.752;23.576;2024-02-23T09:40:22;95614.23;;;9.79;48.55
61357;BME280;47227;46.752;23.576;2024-02-23T09:42:55;95613.27;;;9.85;48.36
61357;BME280;47227;46.752;23.576;2024-02-23T09:45:25;95613.53;;;9.91;47.70
61357;BME280;47227;46.752;23.576;2024-02-23T09:47:57;95612.74;;;9.93;47.66
61357;BME280;47227;46.752;23.576;2024-02-23T09:50:28;95610.50;;;9.99;47.84
61357;BME280;47227;46.752;23.576;2024-02-23T09:52:58;95609.36;;;10.00;47.62
61357;BME280;47227;46.752;23.576;2024-02-23T09:55:27;95612.13;;;9.99;47.59
61357;BME280;47227;46.752;23.576;2024-02-23T09:57:57;95612.14;;;9.99;47.52
61357;BME280;47227;46.752;23.576;2024-02-23T10:00:26;95614.60;;;9.99;47.27
61357;BME280;47227;46.752;23.576;2024-02-23T10:02:55;95613.14;;;9.99;47.48
61357;BME280;47227;46.752;23.576;2024-02-23T10:05:29;95613.87;;;10.01;47.92
61357;BME280;47227;46.752;23.576;2024-02-23T10:08:05;95615.97;;;10.03;47.74
61357;BME280;47227;46.752;23.576;2024-02-23T10:10:34;95626.86;;;10.03;47.40
61357;BME280;47227;46.752;23.576;2024-02-23T10:13:06;95620.52;;;10.03;47.53
61357;BME280;47227;46.752;23.576;2024-02-23T10:15:34;95618.91;;;10.03;47.11
61357;BME280;47227;46.752;23.576;2024-02-23T10:18:06;95617.59;;;10.06;47.25
61357;BME280;47227;46.752;23.576;2024-02-23T10:20:35;95622.73;;;10.10;47.05
61357;BME280;47227;46.752;23.576;2024-02-23T10:23:05;95617.45;;;10.11;46.87
61357;BME280;47227;46.752;23.576;2024-02-23T10:25:34;95615.92;;;10.13;46.79
61357;BME280;47227;46.752;23.576;2024-02-23T10:28:04;95615.30;;;10.15;47.06
61357;BME280;47227;46.752;23.576;2024-02-23T10:30:33;95614.00;;;10.21;46.92
61357;BME280;47227;46.752;23.576;2024-02-23T10:33:03;95617.27;;;10.26;46.72
61357;BME280;47227;46.752;23.576;2024-02-23T10:35:36;95620.69;;;10.27;46.55
61357;BME280;47227;46.752;23.576;2024-02-23T10:38:09;95610.95;;;10.29;46.91
61357;BME280;47227;46.752;23.576;2024-02-23T10:40:39;95613.78;;;10.34;46.60
61357;BME280;47227;46.752;23.576;2024-02-23T10:43:12;95609.69;;;10.38;46.78
61357;BME280;47227;46.752;23.576;2024-02-23T10:45:44;95606.23;;;10.43;46.83
61357;BME280;47227;46.752;23.576;2024-02-23T10:48:15;95607.23;;;10.49;46.42
61357;BME280;47227;46.752;23.576;2024-02-23T10:50:44;95602.04;;;10.52;46.16
61357;BME280;47227;46.752;23.576;2024-02-23T10:53:13;95605.60;;;10.55;46.40
61357;BME280;47227;46.752;23.576;2024-02-23T10:55:43;95603.66;;;10.59;46.05
61357;BME280;47227;46.752;23.576;2024-02-23T10:58:13;95596.99;;;10.65;46.38
61357;BME280;47227;46.752;23.576;2024-02-23T11:00:44;95593.21;;;10.72;46.27
61357;BME280;47227;46.752;23.576;2024-02-23T11:03:14;95584.80;;;10.80;46.77
61357;BME280;47227;46.752;23.576;2024-02-23T11:05:47;95586.89;;;10.91;46.53
61357;BME280;47227;46.752;23.576;2024-02-23T11:08:18;95585.30;;;10.98;46.01
61357;BME280;47227;46.752;23.576;2024-02-23T11:10:51;95579.25;;;11.00;45.76
61357;BME280;47227;46.752;23.576;2024-02-23T11:13:37;95583.13;;;11.04;45.98
61357;BME280;47227;46.752;23.576;2024-02-23T11:16:07;95585.39;;;11.10;45.99
61357;BME280;47227;46.752;23.576;2024-02-23T11:18:39;95594.70;;;11.12;45.55
61357;BME280;47227;46.752;23.576;2024-02-23T11:21:11;95594.20;;;11.07;45.38
61357;BME280;47227;46.752;23.576;2024-02-23T11:23:43;95595.46;;;11.00;45.64
61357;BME280;47227;46.752;23.576;2024-02-23T11:26:13;95590.86;;;11.00;45.85
61357;BME280;47227;46.752;23.576;2024-02-23T11:28:43;95592.75;;;11.00;46.08
61357;BME280;47227;46.752;23.576;2024-02-23T11:31:16;95596.90;;;11.00;45.67
61357;BME280;47227;46.752;23.576;2024-02-23T11:33:54;95594.73;;;11.01;45.63
61357;BME280;47227;46.752;23.576;2024-02-23T11:36:23;95605.02;;;11.01;45.45
61357;BME280;47227;46.752;23.576;2024-02-23T11:38:53;95594.73;;;11.03;45.88
61357;BME280;47227;46.752;23.576;2024-02-23T11:41:24;95604.39;;;11.07;45.75
61357;BME280;47227;46.752;23.576;2024-02-23T11:43:54;95602.74;;;11.11;45.79
61357;BME280;47227;46.752;23.576;2024-02-23T11:46:23;95605.40;;;11.17;45.49
61357;BME280;47227;46.752;23.576;2024-02-23T11:48:52;95606.34;;;11.20;45.37
61357;BME280;47227;46.752;23.576;2024-02-23T11:51:24;95602.98;;;11.21;45.25
61357;BME280;47227;46.752;23.576;2024-02-23T11:53:55;95602.23;;;11.25;44.88
61357;BME280;47227;46.752;23.576;2024-02-23T11:56:29;95597.91;;;11.28;44.99
61357;BME280;47227;46.752;23.576;2024-02-23T11:58:58;95594.19;;;11.29;44.92
61357;BME280;47227;46.752;23.576;2024-02-23T12:01:30;95595.96;;;11.32;44.91
61357;BME280;47227;46.752;23.576;2024-02-23T12:04:00;95594.25;;;11.38;45.17
61357;BME280;47227;46.752;23.576;2024-02-23T12:06:29;95590.45;;;11.46;45.36
61357;BME280;47227;46.752;23.576;2024-02-23T12:09:01;95591.84;;;11.53;44.69
61357;BME280;47227;46.752;23.576;2024-02-23T12:11:30;95596.15;;;11.62;45.04
61357;BME280;47227;46.752;23.576;2024-02-23T12:14:00;95598.95;;;11.71;44.27
61357;BME280;47227;46.752;23.576;2024-02-23T12:16:30;95601.30;;;11.75;43.94
61357;BME280;47227;46.752;23.576;2024-02-23T12:19:01;95598.25;;;11.75;43.97
61357;BME280;47227;46.752;23.576;2024-02-23T12:21:34;95599.77;;;11.76;43.77
61357;BME280;47227;46.752;23.576;2024-02-23T12:24:05;95606.30;;;11.74;43.60
61357;BME280;47227;46.752;23.576;2024-02-23T12:26:37;95595.67;;;11.71;43.67
61357;BME280;47227;46.752;23.576;2024-02-23T12:29:05;95600.59;;;11.68;43.34
61357;BME280;47227;46.752;23.576;2024-02-23T12:31:34;95594.60;;;11.66;43.86
61357;BME280;47227;46.752;23.576;2024-02-23T12:34:03;95601.19;;;11.64;43.61
61357;BME280;47227;46.752;23.576;2024-02-23T12:36:31;95592.95;;;11.64;44.00
61357;BME280;47227;46.752;23.576;2024-02-23T12:39:03;95595.44;;;11.67;44.02
61357;BME280;47227;46.752;23.576;2024-02-23T12:41:32;95595.91;;;11.67;43.83
61357;BME280;47227;46.752;23.576;2024-02-23T12:44:00;95593.34;;;11.69;43.96
61357;BME280;47227;46.752;23.576;2024-02-23T12:46:29;95592.61;;;11.70;43.63
61357;BME280;47227;46.752;23.576;2024-02-23T12:48:57;95591.59;;;11.71;44.02
61357;BME280;47227;46.752;23.576;2024-02-23T12:51:26;95590.80;;;11.74;43.81
61357;BME280;47227;46.752;23.576;2024-02-23T12:53:55;95582.27;;;11.77;44.03
61357;BME280;47227;46.752;23.576;2024-02-23T12:56:24;95583.58;;;11.77;43.50
61357;BME280;47227;46.752;23.576;2024-02-23T12:58:53;95581.10;;;11.76;43.73
61357;BME280;47227;46.752;23.576;2024-02-23T13:01:22;95580.27;;;11.75;43.81
61357;BME280;47227;46.752;23.576;2024-02-23T13:03:50;95575.46;;;11.71;43.70
61357;BME280;47227;46.752;23.576;2024-02-23T13:06:19;95575.21;;;11.70;44.01
61357;BME280;47227;46.752;23.576;2024-02-23T13:08:48;95583.08;;;11.71;44.13